Airfield :
LOGIN :

Register | Disclaimer

   EN    FR    IT 

 










Legend :    VFR   Marginal VFR   IFR   Intensive IFR   Very Intensive IFR
Visi :
Ceiling :
>= 8 km
>= 3000ft
5 to 8 km
1000 to 3000 ft
1500m to 5 km
500 to 1000 ft
800 to 1500m
200 to 500 ft
< 800m
< 200 ft
Symbols :   Thunderstorms  Fog  Heavy snow  Heavy precipitations  Wind > 20 kt
SIGMETs :     Misc.  Thunderstorms  Icing  Turbulence  Mountain Waves  Volcanic Ashes







- Airport Elevation : 138 ft
- IATA code : BIO


LEBB - Bilbao

CURRENT METAR :
  • 250430Z 22008G18KT 140V290 9999 FEW045 13/04 Q1002 NOSIG

EXPIRED METARs :
  • 250400Z VRB09G22KT 9999 FEW045 13/04 Q1001 NOSIG
  • 250330Z 25011KT 200V290 9999 FEW045 13/05 Q1001 NOSIG
  • 250300Z VRB05KT 9999 FEW045 13/05 Q1001 NOSIG
  • 250230Z AUTO 00000KT 9999 NCD 12/06 Q1001
  • 250200Z AUTO VRB05KT 9999 NCD 13/06 Q1001

TAF TAF LEBB
Valid from the 25 at 00:00 until the 26 at 00:00 UTC


242300Z 2500/2524 23009KT 9999 SCT040 TX17/2515Z TN10/2503Z
TEMPO 2503/2521 23015G30KT
TEMPO 2506/2524 SCT030TCU
PROB40
TEMPO 2521/2524 26015G25KT SHRA TS SCT020TCU SCT030CB
No reported NOTAMs for that airfield.



MET'MAP, your aeronautical weather chart ! - Copyright ORBIFLY December 2007 - Disclaimer

ORBIFLY MET'MAP TEAM :

Programming & Development : Alexandra Zaïnal
Concept & Development : Baudouin d'Aumeries
Co-Development & Prog : Marc-Olivier Méhu
Technical & hardware support : Manuel Goepfert

Contact : metmap@orbifly.com




SOURCES & CREDITS :

   NOAA